Time;durP1;ratioP1;P1;durP2;ratioP2;P2;SDS_P1;SDS_P2;PMS_P1;PMS_P2;Temp;Humidity;BMP_temperature;BMP_pressure;BME280_temperature;BME280_humidity;BME280_pressure;Samples;Min_cycle;Max_cycle;Signal;HPM_P1;HPM_P2
2022/01/11 00:05:01;;;;;;;14.90;8.70;;;;;;;-1.98;71.17;99924.25;218529;1279;25349;-69
2022/01/11 00:10:09;;;;;;;15.70;8.50;;;;;;;-1.93;71.31;99933.27;218738;1279;22644;-69
2022/01/11 00:15:55;;;;;;;14.60;7.90;;;;;;;-1.89;71.06;99933.92;218692;1281;23761;-69
2022/01/11 00:21:45;;;;;;;12.50;7.10;;;;;;;-1.93;70.53;99941.15;218616;1279;22689;-70
2022/01/11 00:33:30;;;;;;;13.60;7.50;;;;;;;-1.97;70.31;99948.27;218486;1279;22644;-70
2022/01/11 00:38:49;;;;;;;;;;;;;;;;;;;;;
2022/01/11 00:44:34;;;;;;;12.70;7.10;;;;;;;-1.98;69.90;99951.20;218555;1281;26024;-70
2022/01/11 00:50:03;;;;;;;;;;;;;;;-1.97;69.83;99954.29;218547;1281;22570;-69
2022/01/11 00:55:31;;;;;;;15.10;7.50;;;;;;;-1.97;69.88;99955.16;218630;1280;25724;-69
2022/01/11 01:00:40;;;;;;;14.10;8.20;;;;;;;-2.00;70.01;99957.83;218573;1280;22573;-69
2022/01/11 01:05:58;;;;;;;14.30;7.90;;;;;;;-2.00;69.91;99958.24;218623;1280;22617;-69
2022/01/11 01:11:24;;;;;;;12.80;7.50;;;;;;;-1.98;69.75;99957.47;218422;1279;22591;-70
2022/01/11 01:17:18;;;;;;;;;;;;;;;;;;;;;
2022/01/11 01:23:25;;;;;;;;;;;;;;;;;;;;;
2022/01/11 01:28:53;;;;;;;12.20;7.20;;;;;;;-2.05;69.30;99953.46;218500;1281;22592;-69
2022/01/11 01:40:36;;;;;;;12.10;6.30;;;;;;;-2.10;68.95;99963.16;218356;1280;24413;-69
2022/01/11 01:46:07;;;;;;;10.90;6.50;;;;;;;-2.17;68.59;99961.08;218668;1279;22655;-70
2022/01/11 01:52:12;;;;;;;14.10;7.50;;;;;;;-2.19;68.76;99966.11;218446;1279;25346;-70
2022/01/11 01:57:48;;;;;;;;;;;;;;;;;;;;;
2022/01/11 02:03:17;;;;;;;;;;;;;;;;;;;;;
2022/01/11 02:08:20;;;;;;;10.90;6.10;;;;;;;-2.15;68.62;99980.63;218677;1281;22766;-70
2022/01/11 02:19:15;;;;;;;14.20;6.90;;;;;;;-2.14;68.31;99987.77;218638;1281;24257;-69
2022/01/11 02:24:59;;;;;;;12.40;7.40;;;;;;;-2.15;68.45;99996.13;218655;1279;25417;-70
2022/01/11 02:30:10;;;;;;;13.00;6.80;;;;;;;-2.16;68.28;100004.46;218500;1279;22582;-69
2022/01/11 02:35:29;;;;;;;;;;;;;;;;;;;;;
2022/01/11 02:41:27;;;;;;;14.60;7.00;;;;;;;-2.15;68.38;100005.20;218518;1279;25598;-70
2022/01/11 02:46:39;;;;;;;20.60;10.40;;;;;;;-2.12;68.28;100001.98;218649;1279;22932;-69
2022/01/11 02:52:14;;;;;;;16.10;9.20;;;;;;;-2.12;68.09;100004.33;218403;1279;22585;-69
2022/01/11 02:57:52;;;;;;;14.50;7.70;;;;;;;-2.17;68.16;100005.88;218468;1279;22712;-70
2022/01/11 03:03:28;;;;;;;15.20;9.00;;;;;;;-2.24;68.27;100011.07;218305;1279;25386;-70
2022/01/11 03:14:09;;;;;;;15.80;8.30;;;;;;;-2.40;67.86;100007.09;218515;1279;22529;-69
2022/01/11 03:19:34;;;;;;;13.50;8.20;;;;;;;-2.55;67.91;100018.17;218527;1279;22553;-69
2022/01/11 03:24:38;;;;;;;14.30;8.10;;;;;;;-2.69;67.87;100020.33;218588;1279;26606;-70
2022/01/11 03:29:47;;;;;;;15.50;8.10;;;;;;;-2.80;68.19;100028.80;218439;1279;22714;-69
2022/01/11 03:34:53;;;;;;;18.00;9.00;;;;;;;-2.86;68.37;100034.79;218591;1278;22572;-70
2022/01/11 03:40:12;;;;;;;15.30;9.10;;;;;;;-2.88;68.55;100036.98;218524;1279;22608;-69
2022/01/11 03:45:35;;;;;;;15.60;9.10;;;;;;;-2.88;68.46;100041.84;218406;1280;22552;-69
2022/01/11 03:51:00;;;;;;;15.50;7.30;;;;;;;-2.85;68.56;100047.27;218444;1279;24091;-70
2022/01/11 03:56:35;;;;;;;16.50;8.00;;;;;;;-2.83;68.32;100051.90;218291;1279;22554;-69
2022/01/11 04:01:46;;;;;;;13.90;8.00;;;;;;;-2.79;68.39;100064.27;218135;1279;22584;-70
2022/01/11 04:07:07;;;;;;;16.40;9.20;;;;;;;-2.75;68.24;100067.11;218076;1279;22983;-69
2022/01/11 04:12:09;;;;;;;15.80;8.10;;;;;;;-2.71;68.40;100072.84;218703;1279;23067;-70
2022/01/11 04:17:21;;;;;;;14.80;8.20;;;;;;;-2.69;68.34;100075.06;218435;1279;25587;-70
2022/01/11 04:22:36;;;;;;;;;;;;;;;;;;;;;
2022/01/11 04:28:01;;;;;;;14.00;7.60;;;;;;;-2.67;68.23;100079.75;218573;1279;22887;-69
2022/01/11 04:33:46;;;;;;;;;;;;;;;;;;;;;
2022/01/11 04:39:22;;;;;;;15.30;8.00;;;;;;;-2.73;68.10;100077.40;218607;1279;23056;-69
2022/01/11 04:44:39;;;;;;;16.50;8.80;;;;;;;-2.85;68.25;100082.88;218518;1279;23858;-70
2022/01/11 04:50:08;;;;;;;;;;;;;;;;;;;;;
2022/01/11 04:56:24;;;;;;;;;;;;;;;;;;;;;
2022/01/11 05:02:34;;;;;;;15.40;8.50;;;;;;;-3.25;68.84;100091.30;218428;1279;25420;-69
2022/01/11 05:08:09;;;;;;;20.00;9.80;;;;;;;-3.35;69.10;100103.44;218524;1279;24323;-70
2022/01/11 05:13:37;;;;;;;22.70;11.00;;;;;;;-3.39;69.59;100108.46;218438;1279;22742;-69
2022/01/11 05:19:13;;;;;;;;;;;;;;;;;;;;;
2022/01/11 05:24:53;;;;;;;23.10;10.30;;;;;;;-3.22;70.00;100116.29;218489;1279;22723;-69
2022/01/11 05:29:59;;;;;;;25.10;11.80;;;;;;;-3.15;70.10;100121.13;218510;1278;22839;-69
2022/01/11 05:35:25;;;;;;;24.40;13.00;;;;;;;-3.12;69.98;100132.82;218440;1279;22779;-70
2022/01/11 05:41:27;;;;;;;23.40;10.80;;;;;;;-3.14;70.04;100138.14;218417;1279;22750;-69
2022/01/11 05:47:01;;;;;;;21.10;10.50;;;;;;;-3.18;70.33;100142.36;218537;1279;24228;-70
2022/01/11 05:52:34;;;;;;;18.10;10.50;;;;;;;-3.21;70.58;100145.75;218451;1279;24200;-69
2022/01/11 05:58:33;;;;;;;;;;;;;;;;;;;;;
2022/01/11 06:04:04;;;;;;;;;;;;;;;;;;;;;
2022/01/11 06:09:51;;;;;;;32.90;15.80;;;;;;;-3.34;71.19;100166.29;218553;1279;24264;-70
2022/01/11 06:15:53;;;;;;;31.00;15.50;;;;;;;-3.41;71.46;100175.58;218738;1279;22792;-69
2022/01/11 06:21:25;;;;;;;39.50;17.90;;;;;;;-3.48;71.59;100191.98;218509;1279;22674;-71
2022/01/11 06:26:54;;;;;;;47.30;17.80;;;;;;;-3.53;71.91;100205.09;218329;1279;22799;-70
2022/01/11 06:32:31;;;;;;;35.90;17.30;;;;;;;-3.59;72.04;100211.51;218391;1279;23825;-69
2022/01/11 06:38:15;;;;;;;40.90;19.20;;;;;;;-3.65;72.23;100213.91;218560;1279;24197;-69
2022/01/11 06:43:24;;;;;;;39.50;16.30;;;;;;;-3.69;72.60;100223.01;218427;1279;24255;-68
2022/01/11 06:49:24;;;;;;;32.80;16.40;;;;;;;-3.73;72.66;100222.93;218049;1279;24267;-70
2022/01/11 06:54:30;;;;;;;45.60;19.30;;;;;;;-3.81;72.77;100225.11;217779;1279;26634;-70
2022/01/11 06:59:58;;;;;;;59.10;23.70;;;;;;;-3.91;72.88;100231.45;218032;1279;25636;-70
2022/01/11 07:05:19;;;;;;;48.10;20.40;;;;;;;-4.04;73.04;100240.00;217799;1279;25567;-70
2022/01/11 07:11:02;;;;;;;37.10;18.00;;;;;;;-4.17;73.21;100251.45;217797;1279;22650;-68
2022/01/11 07:16:41;;;;;;;39.60;17.70;;;;;;;-4.30;73.42;100259.96;217896;1279;24016;-69
2022/01/11 07:21:59;;;;;;;52.00;20.10;;;;;;;-4.40;73.76;100267.09;217967;1279;24803;-70
2022/01/11 07:27:25;;;;;;;49.50;21.90;;;;;;;-4.47;73.89;100271.10;219572;1279;22629;-68
2022/01/11 07:32:37;;;;;;;54.70;23.80;;;;;;;-4.54;74.02;100275.05;218160;1279;27981;-68
2022/01/11 07:37:45;;;;;;;50.20;23.30;;;;;;;-4.58;74.32;100276.49;218979;1279;24841;-68
2022/01/11 07:42:59;;;;;;;56.70;24.00;;;;;;;-4.58;74.40;100282.25;218189;1279;24239;-68
2022/01/11 07:48:25;;;;;;;52.00;24.20;;;;;;;-4.55;74.73;100288.64;218178;1279;22861;-70
2022/01/11 07:54:08;;;;;;;62.70;26.90;;;;;;;-4.50;74.87;100290.71;218252;1279;23624;-69
2022/01/11 07:59:26;;;;;;;53.70;25.90;;;;;;;-4.40;75.12;100289.04;219582;1279;23062;-71
2022/01/11 08:05:51;;;;;;;;;;;;;;;;;;;;;
2022/01/11 08:11:44;;;;;;;52.20;25.40;;;;;;;-3.66;74.91;100298.71;219733;1279;22545;-69
2022/01/11 08:17:32;;;;;;;45.50;22.10;;;;;;;-3.63;74.55;100298.86;220047;1279;22559;-70
2022/01/11 08:22:48;;;;;;;48.60;22.60;;;;;;;-3.57;74.66;100303.59;219556;1278;71245;-70
2022/01/11 08:28:25;;;;;;;56.90;25.90;;;;;;;-3.52;74.78;100306.55;217983;1279;24265;-69
2022/01/11 08:33:47;;;;;;;59.20;27.30;;;;;;;-3.45;74.84;100309.86;218027;1279;26621;-70
2022/01/11 08:38:54;;;;;;;47.10;22.10;;;;;;;-3.40;74.70;100309.44;217576;1279;22576;-70
2022/01/11 08:44:23;;;;;;;;;;;;;;;;;;;;;
2022/01/11 08:49:39;;;;;;;43.90;21.80;;;;;;;-2.87;75.42;100318.48;217870;1279;22607;-70
2022/01/11 08:54:55;;;;;;;41.70;20.90;;;;;;;-1.99;75.62;100321.16;218150;1279;22595;-70
2022/01/11 09:00:42;;;;;;;42.40;20.10;;;;;;;-1.82;73.93;100315.30;218372;1279;22563;-69
2022/01/11 09:06:58;;;;;;;46.20;22.60;;;;;;;-1.87;72.87;100323.00;217977;1279;23689;-68
2022/01/11 09:19:51;;;;;;;41.70;18.60;;;;;;;-2.00;72.67;100321.45;217679;1279;22550;-70
2022/01/11 09:26:05;;;;;;;47.30;22.70;;;;;;;-2.08;72.43;100316.95;217824;1279;24321;-70
2022/01/11 09:32:00;;;;;;;45.90;21.90;;;;;;;-1.98;72.67;100314.91;217769;1279;25879;-70
2022/01/11 09:37:49;;;;;;;;;;;;;;;;;;;;;
2022/01/11 09:43:43;;;;;;;60.80;26.20;;;;;;;-1.80;72.76;100313.69;219709;1279;24535;-69
2022/01/11 09:49:23;;;;;;;45.90;21.80;;;;;;;-1.69;72.56;100312.91;218040;1279;22571;-70
2022/01/11 09:54:51;;;;;;;50.00;22.60;;;;;;;-1.68;72.39;100307.11;218144;1279;22580;-70
2022/01/11 10:01:08;;;;;;;;;;;;;;;;;;;;;
2022/01/11 10:06:59;;;;;;;41.10;21.90;;;;;;;-1.61;72.02;100305.21;219676;1279;24247;-71
2022/01/11 10:12:26;;;;;;;;;;;;;;;;;;;;;
2022/01/11 10:18:00;;;;;;;40.60;21.40;;;;;;;-1.50;71.84;100302.45;219589;1279;22649;-71
2022/01/11 10:24:26;;;;;;;41.10;19.00;;;;;;;-1.45;71.85;100302.38;219754;1279;24937;-71
2022/01/11 10:30:15;;;;;;;40.00;19.20;;;;;;;-1.33;71.83;100300.61;219730;1279;22582;-71
2022/01/11 10:36:32;;;;;;;39.90;23.00;;;;;;;-1.20;71.61;100301.39;219652;1279;24474;-70
2022/01/11 10:42:32;;;;;;;;;;;;;;;;;;;;;
2022/01/11 10:48:52;;;;;;;37.60;19.70;;;;;;;-0.86;71.32;100308.96;218310;1279;26665;-70
2022/01/11 10:54:46;;;;;;;37.40;17.80;;;;;;;-0.70;71.18;100304.30;219697;1279;22655;-70
2022/01/11 11:00:33;;;;;;;37.70;18.20;;;;;;;-0.62;70.66;100309.70;219743;1279;25415;-68
2022/01/11 11:05:47;;;;;;;35.60;18.20;;;;;;;-0.56;70.34;100312.48;218395;1279;22577;-70
2022/01/11 11:11:23;;;;;;;37.30;18.00;;;;;;;-0.48;69.99;100300.08;219408;1279;22575;-70
2022/01/11 11:17:00;;;;;;;34.10;17.30;;;;;;;-0.40;70.00;100306.08;218178;1279;25437;-69
2022/01/11 11:22:47;;;;;;;35.80;17.90;;;;;;;-0.30;69.75;100309.02;218367;1279;25385;-70
2022/01/11 11:29:31;;;;;;;;;;;;;;;;;;;;;
2022/01/11 11:42:35;;;;;;;37.90;19.50;;;;;;;-0.37;69.01;100300.00;218394;1279;25400;-68
2022/01/11 11:48:11;;;;;;;44.90;19.70;;;;;;;-0.52;68.80;100298.67;218297;1279;25595;-70
2022/01/11 12:00:46;;;;;;;36.70;19.00;;;;;;;-0.28;69.47;100293.46;218276;1279;24130;-69
2022/01/11 12:06:27;;;;;;;32.50;16.40;;;;;;;-0.33;68.94;100291.48;218075;1279;25344;-69
2022/01/11 12:11:36;;;;;;;31.60;15.20;;;;;;;-0.50;68.83;100291.30;218571;1279;22602;-69
2022/01/11 12:16:40;;;;;;;;;;;;;;;-0.64;69.09;100288.97;218482;1279;22615;-69
2022/01/11 12:21:53;;;;;;;36.50;17.30;;;;;;;-0.64;69.36;100293.46;219007;1278;25402;-69
2022/01/11 12:26:58;;;;;;;34.40;15.70;;;;;;;-0.53;69.62;100295.13;218247;1279;25333;-69
2022/01/11 12:32:18;;;;;;;;;;;;;;;;;;;;;
2022/01/11 12:37:45;;;;;;;36.80;17.80;;;;;;;-0.46;69.31;100290.48;218423;1279;22682;-69
2022/01/11 12:42:54;;;;;;;29.70;16.10;;;;;;;-0.40;69.44;100288.17;218283;1279;23031;-69
2022/01/11 12:47:58;;;;;;;30.70;16.00;;;;;;;-0.37;69.34;100287.25;218357;1279;22820;-70
2022/01/11 12:53:33;;;;;;;34.60;17.50;;;;;;;-0.35;69.23;100288.98;218589;1279;22538;-69
2022/01/11 12:58:43;;;;;;;31.50;15.40;;;;;;;-0.35;69.03;100294.05;218456;1279;22566;-69
2022/01/11 13:09:36;;;;;;;33.40;16.90;;;;;;;-0.41;68.92;100300.83;218519;1279;25818;-69
2022/01/11 13:15:16;;;;;;;32.20;16.20;;;;;;;-0.41;68.94;100304.52;218463;1279;24196;-69
2022/01/11 13:20:42;;;;;;;36.00;16.50;;;;;;;-0.44;68.80;100304.08;218496;1279;22553;-70
2022/01/11 13:26:01;;;;;;;33.80;16.80;;;;;;;-0.45;68.81;100308.63;218504;1279;22552;-70
2022/01/11 13:31:08;;;;;;;37.40;17.30;;;;;;;-0.48;68.94;100311.09;218722;1279;22602;-70
2022/01/11 13:36:51;;;;;;;32.40;16.20;;;;;;;-0.53;69.06;100312.02;218441;1279;22616;-69
2022/01/11 13:42:53;;;;;;;34.40;17.10;;;;;;;-0.65;69.02;100311.14;218365;1279;22580;-69
2022/01/11 13:48:21;;;;;;;34.60;18.40;;;;;;;-0.71;69.28;100310.42;218376;1279;22805;-69
2022/01/11 13:53:25;;;;;;;33.10;16.10;;;;;;;-0.80;69.16;100317.34;218655;1279;22622;-68
2022/01/11 13:58:31;;;;;;;33.50;17.30;;;;;;;-0.85;69.43;100319.91;218678;1279;22832;-67
2022/01/11 14:03:37;;;;;;;38.50;18.80;;;;;;;-0.92;69.49;100321.75;218391;1279;24691;-69
2022/01/11 14:08:56;;;;;;;32.50;15.50;;;;;;;-0.97;69.64;100323.14;218659;1279;24378;-68
2022/01/11 14:14:20;;;;;;;29.60;15.60;;;;;;;-1.03;69.78;100323.77;218495;1279;22643;-69
2022/01/11 14:19:57;;;;;;;32.00;17.00;;;;;;;-1.11;69.82;100326.71;218238;1279;25402;-69
2022/01/11 14:25:41;;;;;;;36.70;18.80;;;;;;;-1.21;69.94;100330.29;218446;1279;24265;-70
2022/01/11 14:36:57;;;;;;;38.90;18.20;;;;;;;-1.46;70.04;100320.71;220069;1279;22560;-71
2022/01/11 14:42:17;;;;;;;;;;;;;;;;;;;;;
2022/01/11 14:53:32;;;;;;;38.80;18.10;;;;;;;-1.75;70.48;100324.84;219610;1279;24859;-71
2022/01/11 14:59:02;;;;;;;46.60;19.20;;;;;;;-1.85;70.58;100326.96;219655;1279;25622;-70
2022/01/11 15:04:10;;;;;;;53.40;22.50;;;;;;;-1.95;70.66;100329.59;218070;1279;22626;-69
2022/01/11 15:09:24;;;;;;;53.80;22.90;;;;;;;-2.04;70.85;100335.00;218658;1279;22590;-70
2022/01/11 15:15:03;;;;;;;54.20;22.60;;;;;;;-2.15;71.23;100340.69;218429;1279;22574;-70
2022/01/11 15:20:49;;;;;;;52.70;22.70;;;;;;;-2.27;71.60;100347.11;219185;1279;25156;-70
2022/01/11 15:25:55;;;;;;;58.20;24.60;;;;;;;-2.38;71.46;100354.85;218321;1279;25691;-70
2022/01/11 15:31:11;;;;;;;50.60;22.70;;;;;;;-2.47;71.54;100360.44;218233;1279;25257;-70
2022/01/11 15:36:21;;;;;;;48.90;21.80;;;;;;;-2.56;71.88;100364.05;217954;1279;22633;-70
2022/01/11 15:41:50;;;;;;;47.60;21.50;;;;;;;-2.66;72.20;100369.74;218680;1279;25234;-70
2022/01/11 15:47:04;;;;;;;45.40;20.90;;;;;;;-2.76;72.09;100375.14;218512;1279;24348;-71
2022/01/11 15:52:18;;;;;;;51.60;21.90;;;;;;;-2.83;72.45;100368.23;218721;1279;22642;-69
2022/01/11 15:57:21;;;;;;;51.90;21.50;;;;;;;-2.89;72.61;100368.20;218605;1279;22598;-70
2022/01/11 16:02:31;;;;;;;45.30;22.00;;;;;;;-2.97;72.70;100371.79;219540;1279;23008;-70
2022/01/11 16:07:36;;;;;;;49.60;24.60;;;;;;;-3.05;72.93;100376.94;219577;1279;22886;-70
2022/01/11 16:12:39;;;;;;;63.40;27.90;;;;;;;-3.13;72.98;100380.42;218589;1278;25569;-71
2022/01/11 16:17:44;;;;;;;66.20;27.50;;;;;;;-3.21;73.20;100383.16;219511;1279;25714;-70
2022/01/11 16:22:48;;;;;;;68.60;27.20;;;;;;;-3.28;73.34;100389.29;218463;1279;26707;-71
2022/01/11 16:27:51;;;;;;;69.70;29.80;;;;;;;-3.33;73.56;100390.65;218549;1279;26762;-70
2022/01/11 16:32:55;;;;;;;64.20;30.00;;;;;;;-3.42;73.64;100387.02;218455;1279;24304;-70
2022/01/11 16:38:00;;;;;;;66.70;28.80;;;;;;;-3.49;73.83;100391.40;218534;1279;22648;-69
2022/01/11 16:43:10;;;;;;;65.00;30.80;;;;;;;-3.53;74.13;100396.19;218577;1279;25880;-70
2022/01/11 16:48:41;;;;;;;;;;;;;;;;;;;;;
2022/01/11 16:53:48;;;;;;;72.20;29.60;;;;;;;-3.70;74.24;100404.91;218595;1279;25745;-70
2022/01/11 16:58:52;;;;;;;68.60;30.70;;;;;;;-3.74;74.58;100404.39;218429;1279;26763;-71
2022/01/11 17:03:54;;;;;;;79.20;33.80;;;;;;;-3.77;74.63;100414.00;219401;1279;22724;-72
2022/01/11 17:09:04;;;;;;;94.50;35.10;;;;;;;-3.80;74.69;100421.48;219405;1279;22566;-71
2022/01/11 17:14:10;;;;;;;100.00;37.60;;;;;;;-3.85;74.71;100427.20;219919;1279;22721;-71
2022/01/11 17:19:21;;;;;;;91.20;36.50;;;;;;;-3.87;75.02;100432.34;219705;1279;22627;-70
2022/01/11 17:24:26;;;;;;;106.60;39.60;;;;;;;-3.89;75.20;100434.44;219631;1279;24275;-70
2022/01/11 17:29:31;;;;;;;97.40;39.50;;;;;;;-3.95;75.24;100443.00;218649;1279;22737;-70
2022/01/11 17:34:39;;;;;;;102.30;42.10;;;;;;;-4.00;75.36;100444.36;218467;1279;22743;-70
2022/01/11 17:39:51;;;;;;;158.90;68.50;;;;;;;-4.07;75.42;100447.50;219309;1279;22878;-69
2022/01/11 17:44:59;;;;;;;89.20;39.00;;;;;;;-4.10;75.66;100451.48;218673;1279;23190;-71
2022/01/11 17:50:03;;;;;;;96.90;38.20;;;;;;;-4.13;75.77;100455.78;218496;1279;24183;-70
2022/01/11 17:55:12;;;;;;;94.80;38.40;;;;;;;-4.17;75.87;100458.77;218792;1279;24817;-70
2022/01/11 18:00:25;;;;;;;100.50;40.20;;;;;;;-4.20;75.97;100462.02;218306;1279;22785;-70
2022/01/11 18:05:28;;;;;;;95.40;39.00;;;;;;;-4.22;76.16;100461.05;218465;1279;24471;-70
2022/01/11 18:10:52;;;;;;;92.60;39.60;;;;;;;-4.27;76.19;100465.65;218577;1279;25442;-71
2022/01/11 18:15:54;;;;;;;102.50;40.40;;;;;;;-4.30;76.35;100467.23;219525;1279;22646;-72
2022/01/11 18:20:59;;;;;;;102.00;41.30;;;;;;;-4.35;76.38;100465.25;219415;1279;24293;-71
2022/01/11 18:26:04;;;;;;;105.20;41.00;;;;;;;-4.40;76.49;100467.45;219597;1279;25553;-71
2022/01/11 18:31:08;;;;;;;107.00;41.80;;;;;;;-4.43;76.52;100468.84;219554;1279;24263;-70
2022/01/11 18:36:43;;;;;;;105.10;42.50;;;;;;;-4.48;76.53;100478.02;218491;1279;24262;-69
2022/01/11 18:41:49;;;;;;;97.50;42.60;;;;;;;-4.51;76.85;100482.79;218167;1279;22656;-71
2022/01/11 18:46:54;;;;;;;94.20;41.80;;;;;;;-4.49;76.92;100481.19;219306;1279;22662;-70
2022/01/11 18:52:00;;;;;;;87.60;38.50;;;;;;;-4.51;77.02;100482.44;218457;1279;24477;-71
2022/01/11 18:57:08;;;;;;;77.60;35.90;;;;;;;-4.53;77.19;100475.85;219601;1279;22738;-74
2022/01/11 19:02:12;;;;;;;84.40;37.50;;;;;;;-4.56;77.23;100467.80;219480;1279;22750;-71
2022/01/11 19:07:18;;;;;;;88.50;39.70;;;;;;;-4.59;77.32;100466.55;218825;1280;26539;-71
2022/01/11 19:12:21;;;;;;;85.10;37.90;;;;;;;-4.65;77.35;100467.23;219923;1280;23561;-70
2022/01/11 19:17:28;;;;;;;81.20;35.80;;;;;;;-4.65;77.84;100469.84;219859;1279;24304;-71
2022/01/11 19:22:34;;;;;;;;;;;;;;;-4.66;77.61;100473.95;219600;1279;22628;-71
2022/01/11 19:27:42;;;;;;;92.30;40.00;;;;;;;-4.76;77.24;100476.46;219703;1279;22688;-71
2022/01/11 19:32:48;;;;;;;95.70;40.70;;;;;;;-4.87;77.45;100477.20;219595;1279;22755;-69
2022/01/11 19:37:51;;;;;;;81.20;36.40;;;;;;;-4.96;77.60;100479.23;219523;1280;25734;-70
2022/01/11 19:42:56;;;;;;;93.60;40.50;;;;;;;-5.03;77.84;100475.06;219641;1280;24021;-70
2022/01/11 19:48:02;;;;;;;89.30;38.40;;;;;;;-5.13;77.58;100482.18;218560;1279;22725;-71
2022/01/11 19:53:04;;;;;;;81.10;34.60;;;;;;;-5.21;77.66;100482.80;218893;1277;25766;-71
2022/01/11 19:58:07;;;;;;;81.70;34.50;;;;;;;-5.30;77.70;100490.42;218120;1281;25591;-70
2022/01/11 20:03:13;;;;;;;63.00;29.00;;;;;;;-5.39;77.82;100488.83;218627;1281;24132;-71
2022/01/11 20:08:25;;;;;;;85.80;37.50;;;;;;;-5.50;77.78;100486.30;218454;1279;25647;-70
2022/01/11 20:13:33;;;;;;;75.20;32.70;;;;;;;-5.59;77.86;100487.01;218335;1281;22690;-71
2022/01/11 20:18:35;;;;;;;67.70;29.50;;;;;;;-5.69;77.84;100486.48;218457;1279;192582;-71
2022/01/11 20:29:02;;;;;;;73.10;31.80;;;;;;;-5.86;78.09;100494.62;218979;1279;25813;-70
2022/01/11 20:34:11;;;;;;;65.70;30.40;;;;;;;-5.83;78.39;100494.56;218641;1281;22875;-69
2022/01/11 20:39:15;;;;;;;65.30;27.10;;;;;;;-5.75;78.57;100496.82;218980;1278;22992;-70
2022/01/11 20:44:21;;;;;;;74.40;31.80;;;;;;;-5.70;78.63;100497.14;218576;1281;26717;-70
2022/01/11 20:49:35;;;;;;;83.40;34.60;;;;;;;-5.62;78.77;100498.20;218564;1279;22581;-70
2022/01/11 20:54:38;;;;;;;94.30;38.40;;;;;;;-5.56;78.59;100495.88;218563;1281;23227;-69
2022/01/11 20:59:41;;;;;;;106.40;43.80;;;;;;;-5.52;78.69;100493.15;218516;1280;22788;-70
2022/01/11 21:04:57;;;;;;;92.40;40.00;;;;;;;-5.49;78.67;100494.80;218615;1280;22754;-70
2022/01/11 21:10:12;;;;;;;92.20;41.10;;;;;;;-5.49;78.39;100490.23;218183;1281;24318;-70
2022/01/11 21:15:34;;;;;;;84.50;37.70;;;;;;;-5.51;78.33;100486.80;218426;1281;22619;-70
2022/01/11 21:20:39;;;;;;;98.70;41.10;;;;;;;-5.55;78.26;100486.39;218352;1281;22787;-69
2022/01/11 21:25:42;;;;;;;89.50;41.20;;;;;;;-5.58;78.22;100482.00;218459;1281;22714;-71
2022/01/11 21:30:47;;;;;;;107.70;43.20;;;;;;;-5.61;78.30;100484.02;218523;1281;23278;-70
2022/01/11 21:35:50;;;;;;;103.50;42.90;;;;;;;-5.63;78.45;100483.17;218717;1281;22729;-70
2022/01/11 21:40:58;;;;;;;103.30;40.50;;;;;;;-5.64;78.36;100486.78;218478;1279;22967;-69
2022/01/11 21:46:00;;;;;;;86.90;36.70;;;;;;;-5.67;78.30;100487.02;218422;1281;24301;-69
2022/01/11 21:51:06;;;;;;;83.80;37.20;;;;;;;-5.70;78.44;100489.73;218472;1280;24376;-70
2022/01/11 21:56:13;;;;;;;80.80;34.20;;;;;;;-5.72;78.33;100495.50;218507;1281;22682;-70
2022/01/11 22:01:23;;;;;;;101.40;43.90;;;;;;;-5.70;78.54;100494.80;218256;1279;22557;-71
2022/01/11 22:06:26;;;;;;;98.60;41.00;;;;;;;-5.64;78.80;100495.45;218656;1279;25395;-71
2022/01/11 22:11:31;;;;;;;93.90;39.20;;;;;;;-5.55;78.93;100497.06;218514;1280;22710;-69
2022/01/11 22:17:19;;;;;;;84.70;32.80;;;;;;;-5.47;78.88;100495.70;218475;1279;24364;-70
2022/01/11 22:22:15;;;;;;;65.30;26.60;;;;;;;-5.46;78.87;100502.00;219201;1279;24264;-70
2022/01/11 22:27:26;;;;;;;68.80;27.40;;;;;;;-5.43;78.73;100506.25;218390;1279;24264;-70
2022/01/11 22:32:29;;;;;;;71.80;27.90;;;;;;;-5.42;78.85;100508.41;219546;1279;24491;-71
2022/01/11 22:37:31;;;;;;;65.30;25.80;;;;;;;-5.36;79.12;100515.33;218548;1279;22886;-70
2022/01/11 22:42:34;;;;;;;86.50;32.40;;;;;;;-5.29;79.15;100520.98;218639;1279;22644;-69
2022/01/11 22:47:42;;;;;;;71.40;28.60;;;;;;;-5.22;79.24;100520.90;218529;1279;22817;-70
2022/01/11 22:52:47;;;;;;;71.10;28.80;;;;;;;-5.13;79.35;100521.93;218442;1279;24289;-71
2022/01/11 22:57:49;;;;;;;59.10;27.40;;;;;;;-5.03;79.33;100517.55;218412;1279;25552;-69
2022/01/11 23:02:52;;;;;;;65.30;26.50;;;;;;;-4.94;79.27;100511.63;218185;1279;22812;-69
2022/01/11 23:07:54;;;;;;;58.00;24.40;;;;;;;-4.87;79.02;100509.10;218345;1279;22743;-70
2022/01/11 23:18:35;;;;;;;60.30;23.90;;;;;;;-4.78;78.96;100507.33;219059;1279;24263;-70
2022/01/11 23:23:37;;;;;;;63.40;27.70;;;;;;;-4.73;79.04;100510.52;218785;1279;22864;-70
2022/01/11 23:28:40;;;;;;;59.00;26.20;;;;;;;-4.67;78.89;100522.30;218732;1279;24227;-68
2022/01/11 23:33:47;;;;;;;62.70;28.10;;;;;;;-4.63;78.84;100522.00;218730;1279;22681;-69
2022/01/11 23:39:00;;;;;;;62.40;28.30;;;;;;;-4.59;78.59;100524.09;218660;1279;22728;-69
2022/01/11 23:44:31;;;;;;;60.60;27.70;;;;;;;-4.59;78.71;100520.42;218675;1279;22807;-69
2022/01/11 23:49:31;;;;;;;64.70;28.60;;;;;;;-4.56;78.56;100524.95;218430;1279;22648;-70
2022/01/11 23:54:36;;;;;;;55.40;25.80;;;;;;;-4.53;78.57;100532.77;218724;1279;22849;-70
2022/01/11 23:59:38;;;;;;;59.90;27.10;;;;;;;-4.49;78.49;100537.94;218387;1279;22688;-71
